sensor_id;sensor_type;location;lat;lon;timestamp;pressure;altitude;pressure_sealevel;temperature
15144;BMP180;7672;50.834;6.286;2022-12-31T00:01:51;98614.28;;;17.57
15144;BMP180;7672;50.834;6.286;2022-12-31T00:04:17;98612.53;;;17.57
15144;BMP180;7672;50.834;6.286;2022-12-31T00:06:44;98609.94;;;17.59
15144;BMP180;7672;50.834;6.286;2022-12-31T00:09:12;98598.00;;;17.59
15144;BMP180;7672;50.834;6.286;2022-12-31T00:11:39;98611.66;;;17.58
15144;BMP180;7672;50.834;6.286;2022-12-31T00:14:06;98615.81;;;17.61
15144;BMP180;7672;50.834;6.286;2022-12-31T00:16:38;98604.69;;;17.62
15144;BMP180;7672;50.834;6.286;2022-12-31T00:19:09;98607.19;;;17.63
15144;BMP180;7672;50.834;6.286;2022-12-31T00:21:37;98613.91;;;17.66
15144;BMP180;7672;50.834;6.286;2022-12-31T00:24:05;98597.53;;;17.70
15144;BMP180;7672;50.834;6.286;2022-12-31T00:26:34;98605.09;;;17.73
15144;BMP180;7672;50.834;6.286;2022-12-31T00:29:02;98606.69;;;17.75
15144;BMP180;7672;50.834;6.286;2022-12-31T00:31:33;98601.44;;;17.78
15144;BMP180;7672;50.834;6.286;2022-12-31T00:34:01;98591.97;;;17.80
15144;BMP180;7672;50.834;6.286;2022-12-31T00:36:37;98586.75;;;17.83
15144;BMP180;7672;50.834;6.286;2022-12-31T00:39:06;98578.13;;;17.86
15144;BMP180;7672;50.834;6.286;2022-12-31T00:41:33;98583.94;;;17.89
15144;BMP180;7672;50.834;6.286;2022-12-31T00:44:00;98577.84;;;17.92
15144;BMP180;7672;50.834;6.286;2022-12-31T00:46:28;98587.91;;;17.96
15144;BMP180;7672;50.834;6.286;2022-12-31T00:48:55;98571.66;;;17.97
15144;BMP180;7672;50.834;6.286;2022-12-31T00:51:23;98571.53;;;18.00
15144;BMP180;7672;50.834;6.286;2022-12-31T00:53:56;98573.97;;;18.03
15144;BMP180;7672;50.834;6.286;2022-12-31T00:56:26;98563.59;;;18.06
15144;BMP180;7672;50.834;6.286;2022-12-31T00:58:53;98564.31;;;18.09
15144;BMP180;7672;50.834;6.286;2022-12-31T01:01:25;98568.50;;;18.10
15144;BMP180;7672;50.834;6.286;2022-12-31T01:03:57;98554.63;;;18.16
15144;BMP180;7672;50.834;6.286;2022-12-31T01:06:25;98580.16;;;18.17
15144;BMP180;7672;50.834;6.286;2022-12-31T01:08:52;98582.59;;;18.20
15144;BMP180;7672;50.834;6.286;2022-12-31T01:11:22;98584.94;;;18.25
15144;BMP180;7672;50.834;6.286;2022-12-31T01:13:58;98566.16;;;18.26
15144;BMP180;7672;50.834;6.286;2022-12-31T01:16:37;98572.97;;;18.25
15144;BMP180;7672;50.834;6.286;2022-12-31T01:19:08;98572.88;;;18.28
15144;BMP180;7672;50.834;6.286;2022-12-31T01:21:37;98577.84;;;18.31
15144;BMP180;7672;50.834;6.286;2022-12-31T01:24:07;98591.38;;;18.33
15144;BMP180;7672;50.834;6.286;2022-12-31T01:26:35;98604.78;;;18.38
15144;BMP180;7672;50.834;6.286;2022-12-31T01:29:04;98596.22;;;18.39
15144;BMP180;7672;50.834;6.286;2022-12-31T01:31:34;98579.09;;;18.41
15144;BMP180;7672;50.834;6.286;2022-12-31T01:34:01;98577.28;;;18.43
15144;BMP180;7672;50.834;6.286;2022-12-31T01:36:31;98564.41;;;18.45
15144;BMP180;7672;50.834;6.286;2022-12-31T01:39:02;98568.72;;;18.44
15144;BMP180;7672;50.834;6.286;2022-12-31T01:41:42;98587.50;;;18.43
15144;BMP180;7672;50.834;6.286;2022-12-31T01:46:45;98588.56;;;18.39
15144;BMP180;7672;50.834;6.286;2022-12-31T01:52:19;98579.09;;;18.41
15144;BMP180;7672;50.834;6.286;2022-12-31T01:57:29;98578.13;;;18.44
15144;BMP180;7672;50.834;6.286;2022-12-31T01:59:57;98593.41;;;18.45
15144;BMP180;7672;50.834;6.286;2022-12-31T02:02:25;98577.91;;;18.48
15144;BMP180;7672;50.834;6.286;2022-12-31T02:04:56;98574.38;;;18.51
15144;BMP180;7672;50.834;6.286;2022-12-31T02:07:24;98565.81;;;18.52
15144;BMP180;7672;50.834;6.286;2022-12-31T02:09:52;98573.41;;;18.53
15144;BMP180;7672;50.834;6.286;2022-12-31T02:12:19;98583.53;;;18.56
15144;BMP180;7672;50.834;6.286;2022-12-31T02:14:50;98590.44;;;18.54
15144;BMP180;7672;50.834;6.286;2022-12-31T02:17:36;98577.50;;;18.57
15144;BMP180;7672;50.834;6.286;2022-12-31T02:23:47;98585.16;;;18.57
15144;BMP180;7672;50.834;6.286;2022-12-31T02:32:20;98601.44;;;18.56
15144;BMP180;7672;50.834;6.286;2022-12-31T02:35:04;98594.59;;;18.57
15144;BMP180;7672;50.834;6.286;2022-12-31T02:37:37;98610.75;;;18.57
15144;BMP180;7672;50.834;6.286;2022-12-31T02:40:09;98595.28;;;18.60
15144;BMP180;7672;50.834;6.286;2022-12-31T02:42:37;98598.66;;;18.60
15144;BMP180;7672;50.834;6.286;2022-12-31T02:45:05;98620.72;;;18.63
15144;BMP180;7672;50.834;6.286;2022-12-31T02:51:08;98629.22;;;18.63
15144;BMP180;7672;50.834;6.286;2022-12-31T02:53:44;98636.09;;;18.63
15144;BMP180;7672;50.834;6.286;2022-12-31T02:56:29;98614.78;;;18.62
15144;BMP180;7672;50.834;6.286;2022-12-31T02:59:12;98659.88;;;18.65
15144;BMP180;7672;50.834;6.286;2022-12-31T03:02:08;98662.44;;;18.65
15144;BMP180;7672;50.834;6.286;2022-12-31T03:04:45;98664.22;;;18.63
15144;BMP180;7672;50.834;6.286;2022-12-31T03:07:29;98656.56;;;18.63
15144;BMP180;7672;50.834;6.286;2022-12-31T03:09:56;98651.50;;;18.61
15144;BMP180;7672;50.834;6.286;2022-12-31T03:12:30;98657.44;;;18.62
15144;BMP180;7672;50.834;6.286;2022-12-31T03:15:27;98656.81;;;18.57
15144;BMP180;7672;50.834;6.286;2022-12-31T03:18:05;98651.84;;;18.54
15144;BMP180;7672;50.834;6.286;2022-12-31T03:23:36;98652.25;;;18.45
15144;BMP180;7672;50.834;6.286;2022-12-31T03:26:05;98667.66;;;18.44
15144;BMP180;7672;50.834;6.286;2022-12-31T03:28:41;98655.94;;;18.38
15144;BMP180;7672;50.834;6.286;2022-12-31T03:31:08;98652.50;;;18.39
15144;BMP180;7672;50.834;6.286;2022-12-31T03:33:39;98653.28;;;18.41
15144;BMP180;7672;50.834;6.286;2022-12-31T03:36:13;98655.06;;;18.39
15144;BMP180;7672;50.834;6.286;2022-12-31T03:38:42;98645.59;;;18.41
15144;BMP180;7672;50.834;6.286;2022-12-31T03:41:16;98651.47;;;18.43
15144;BMP180;7672;50.834;6.286;2022-12-31T03:43:44;98644.72;;;18.42
15144;BMP180;7672;50.834;6.286;2022-12-31T03:46:11;98653.06;;;18.46
15144;BMP180;7672;50.834;6.286;2022-12-31T03:48:38;98643.59;;;18.48
15144;BMP180;7672;50.834;6.286;2022-12-31T03:51:05;98641.13;;;18.46
15144;BMP180;7672;50.834;6.286;2022-12-31T03:53:32;98655.50;;;18.49
15144;BMP180;7672;50.834;6.286;2022-12-31T03:56:01;98624.91;;;18.46
15144;BMP180;7672;50.834;6.286;2022-12-31T03:58:28;98642.91;;;18.44
15144;BMP180;7672;50.834;6.286;2022-12-31T04:00:55;98654.72;;;18.47
15144;BMP180;7672;50.834;6.286;2022-12-31T04:03:23;98651.28;;;18.48
15144;BMP180;7672;50.834;6.286;2022-12-31T04:05:54;98639.31;;;18.48
15144;BMP180;7672;50.834;6.286;2022-12-31T04:08:22;98643.53;;;18.49
15144;BMP180;7672;50.834;6.286;2022-12-31T04:10:51;98648.66;;;18.49
15144;BMP180;7672;50.834;6.286;2022-12-31T04:13:46;98648.78;;;18.46
15144;BMP180;7672;50.834;6.286;2022-12-31T04:17:15;98654.94;;;18.42
15144;BMP180;7672;50.834;6.286;2022-12-31T04:20:36;98642.28;;;18.39
15144;BMP180;7672;50.834;6.286;2022-12-31T04:23:36;98637.94;;;18.41
15144;BMP180;7672;50.834;6.286;2022-12-31T04:26:58;98641.16;;;18.45
15144;BMP180;7672;50.834;6.286;2022-12-31T04:33:27;98632.47;;;18.49
15144;BMP180;7672;50.834;6.286;2022-12-31T04:36:16;98665.53;;;18.53
15144;BMP180;7672;50.834;6.286;2022-12-31T04:39:06;98653.38;;;18.58
15144;BMP180;7672;50.834;6.286;2022-12-31T04:41:33;98654.97;;;18.60
15144;BMP180;7672;50.834;6.286;2022-12-31T04:44:00;98671.91;;;18.63
15144;BMP180;7672;50.834;6.286;2022-12-31T04:46:31;98669.19;;;18.66
15144;BMP180;7672;50.834;6.286;2022-12-31T04:48:59;98673.34;;;18.68
15144;BMP180;7672;50.834;6.286;2022-12-31T04:51:28;98680.91;;;18.71
15144;BMP180;7672;50.834;6.286;2022-12-31T04:53:56;98691.09;;;18.73
15144;BMP180;7672;50.834;6.286;2022-12-31T04:56:24;98685.88;;;18.74
15144;BMP180;7672;50.834;6.286;2022-12-31T04:58:50;98673.91;;;18.75
15144;BMP180;7672;50.834;6.286;2022-12-31T05:01:18;98668.69;;;18.78
15144;BMP180;7672;50.834;6.286;2022-12-31T05:03:46;98688.25;;;18.79
15144;BMP180;7672;50.834;6.286;2022-12-31T05:06:21;98688.94;;;18.82
15144;BMP180;7672;50.834;6.286;2022-12-31T05:08:49;98700.84;;;18.83
15144;BMP180;7672;50.834;6.286;2022-12-31T05:13:50;98687.97;;;18.85
15144;BMP180;7672;50.834;6.286;2022-12-31T05:16:21;98667.47;;;18.85
15144;BMP180;7672;50.834;6.286;2022-12-31T05:22:39;98684.84;;;18.78
15144;BMP180;7672;50.834;6.286;2022-12-31T05:26:11;98712.19;;;18.78
15144;BMP180;7672;50.834;6.286;2022-12-31T05:28:47;98685.75;;;18.77
15144;BMP180;7672;50.834;6.286;2022-12-31T05:31:47;98673.72;;;18.79
15144;BMP180;7672;50.834;6.286;2022-12-31T05:34:45;98692.59;;;18.77
15144;BMP180;7672;50.834;6.286;2022-12-31T05:41:16;98678.44;;;18.70
15144;BMP180;7672;50.834;6.286;2022-12-31T05:44:17;98669.00;;;18.70
15144;BMP180;7672;50.834;6.286;2022-12-31T05:46:53;98678.53;;;18.67
15144;BMP180;7672;50.834;6.286;2022-12-31T05:49:20;98675.91;;;18.68
15144;BMP180;7672;50.834;6.286;2022-12-31T05:51:47;98691.22;;;18.70
15144;BMP180;7672;50.834;6.286;2022-12-31T05:54:13;98693.91;;;18.67
15144;BMP180;7672;50.834;6.286;2022-12-31T05:56:40;98708.38;;;18.68
15144;BMP180;7672;50.834;6.286;2022-12-31T05:59:07;98687.81;;;18.69
15144;BMP180;7672;50.834;6.286;2022-12-31T06:01:34;98702.22;;;18.72
15144;BMP180;7672;50.834;6.286;2022-12-31T06:04:01;98700.47;;;18.72
15144;BMP180;7672;50.834;6.286;2022-12-31T06:06:28;98717.41;;;18.75
15144;BMP180;7672;50.834;6.286;2022-12-31T06:08:54;98692.69;;;18.75
15144;BMP180;7672;50.834;6.286;2022-12-31T06:11:21;98713.84;;;18.79
15144;BMP180;7672;50.834;6.286;2022-12-31T06:13:48;98733.31;;;18.83
15144;BMP180;7672;50.834;6.286;2022-12-31T06:16:15;98757.00;;;18.86
15144;BMP180;7672;50.834;6.286;2022-12-31T06:18:42;98765.31;;;18.91
15144;BMP180;7672;50.834;6.286;2022-12-31T06:21:09;98739.63;;;18.94
15144;BMP180;7672;50.834;6.286;2022-12-31T06:23:36;98756.56;;;18.97
15144;BMP180;7672;50.834;6.286;2022-12-31T06:26:04;98755.53;;;19.01
15144;BMP180;7672;50.834;6.286;2022-12-31T06:28:31;98761.41;;;19.03
15144;BMP180;7672;50.834;6.286;2022-12-31T06:31:04;98757.13;;;19.03
15144;BMP180;7672;50.834;6.286;2022-12-31T06:33:32;98754.44;;;19.06
15144;BMP180;7672;50.834;6.286;2022-12-31T06:36:03;98766.28;;;19.09
15144;BMP180;7672;50.834;6.286;2022-12-31T06:38:32;98771.34;;;19.10
15144;BMP180;7672;50.834;6.286;2022-12-31T06:41:08;98772.19;;;19.11
15144;BMP180;7672;50.834;6.286;2022-12-31T06:43:37;98764.50;;;19.11
15144;BMP180;7672;50.834;6.286;2022-12-31T06:46:08;98750.03;;;19.10
15144;BMP180;7672;50.834;6.286;2022-12-31T06:48:35;98744.91;;;19.10
15144;BMP180;7672;50.834;6.286;2022-12-31T06:51:05;98767.75;;;19.14
15144;BMP180;7672;50.834;6.286;2022-12-31T06:53:36;98751.38;;;19.18
15144;BMP180;7672;50.834;6.286;2022-12-31T06:56:19;98770.09;;;19.19
15144;BMP180;7672;50.834;6.286;2022-12-31T06:58:47;98764.00;;;19.21
15144;BMP180;7672;50.834;6.286;2022-12-31T07:04:29;98749.34;;;19.24
15144;BMP180;7672;50.834;6.286;2022-12-31T07:07:23;98761.19;;;19.27
15144;BMP180;7672;50.834;6.286;2022-12-31T07:16:45;98750.09;;;19.26
15144;BMP180;7672;50.834;6.286;2022-12-31T07:19:37;98760.16;;;19.31
15144;BMP180;7672;50.834;6.286;2022-12-31T07:22:14;98779.53;;;19.36
15144;BMP180;7672;50.834;6.286;2022-12-31T07:24:43;98777.59;;;19.41
15144;BMP180;7672;50.834;6.286;2022-12-31T07:27:33;98763.72;;;19.45
15144;BMP180;7672;50.834;6.286;2022-12-31T07:30:35;98762.06;;;19.44
15144;BMP180;7672;50.834;6.286;2022-12-31T07:39:08;98745.72;;;19.47
15144;BMP180;7672;50.834;6.286;2022-12-31T07:45:16;98758.69;;;19.44
15144;BMP180;7672;50.834;6.286;2022-12-31T07:47:45;98771.41;;;19.45
15144;BMP180;7672;50.834;6.286;2022-12-31T07:50:17;98767.06;;;19.47
15144;BMP180;7672;50.834;6.286;2022-12-31T07:52:45;98785.91;;;19.46
15144;BMP180;7672;50.834;6.286;2022-12-31T07:55:12;98769.72;;;19.46
15144;BMP180;7672;50.834;6.286;2022-12-31T07:58:16;98760.28;;;19.46
15144;BMP180;7672;50.834;6.286;2022-12-31T08:00:44;98774.81;;;19.46
15144;BMP180;7672;50.834;6.286;2022-12-31T08:06:14;98773.91;;;19.47
15144;BMP180;7672;50.834;6.286;2022-12-31T08:11:55;98786.72;;;19.47
15144;BMP180;7672;50.834;6.286;2022-12-31T08:14:24;98772.94;;;19.49
15144;BMP180;7672;50.834;6.286;2022-12-31T08:16:52;98766.91;;;19.50
15144;BMP180;7672;50.834;6.286;2022-12-31T08:19:31;98777.88;;;19.54
15144;BMP180;7672;50.834;6.286;2022-12-31T08:22:33;98793.09;;;19.57
15144;BMP180;7672;50.834;6.286;2022-12-31T08:27:49;98771.19;;;19.68
15144;BMP180;7672;50.834;6.286;2022-12-31T08:30:28;98804.31;;;19.73
15144;BMP180;7672;50.834;6.286;2022-12-31T08:33:09;98798.88;;;19.79
15144;BMP180;7672;50.834;6.286;2022-12-31T08:36:25;98814.06;;;19.83
15144;BMP180;7672;50.834;6.286;2022-12-31T08:39:17;98801.66;;;19.92
15144;BMP180;7672;50.834;6.286;2022-12-31T08:41:54;98799.97;;;20.10
15144;BMP180;7672;50.834;6.286;2022-12-31T08:44:47;98802.13;;;20.36
15144;BMP180;7672;50.834;6.286;2022-12-31T08:50:26;98801.19;;;20.87
15144;BMP180;7672;50.834;6.286;2022-12-31T08:52:53;98780.88;;;21.15
15144;BMP180;7672;50.834;6.286;2022-12-31T08:55:21;98813.06;;;21.37
15144;BMP180;7672;50.834;6.286;2022-12-31T08:58:14;98825.56;;;21.60
15144;BMP180;7672;50.834;6.286;2022-12-31T09:00:48;98844.66;;;21.72
15144;BMP180;7672;50.834;6.286;2022-12-31T09:11:30;98842.25;;;21.84
15144;BMP180;7672;50.834;6.286;2022-12-31T09:14:11;98850.97;;;21.81
15144;BMP180;7672;50.834;6.286;2022-12-31T09:19:18;98869.97;;;21.79
15144;BMP180;7672;50.834;6.286;2022-12-31T09:21:45;98884.09;;;21.87
15144;BMP180;7672;50.834;6.286;2022-12-31T09:24:14;98890.22;;;22.00
15144;BMP180;7672;50.834;6.286;2022-12-31T09:27:01;98893.63;;;22.16
15144;BMP180;7672;50.834;6.286;2022-12-31T09:29:47;98896.31;;;22.30
15144;BMP180;7672;50.834;6.286;2022-12-31T09:35:55;98923.66;;;22.62
15144;BMP180;7672;50.834;6.286;2022-12-31T09:38:36;98917.81;;;22.74
15144;BMP180;7672;50.834;6.286;2022-12-31T09:41:10;98919.16;;;22.81
15144;BMP180;7672;50.834;6.286;2022-12-31T09:52:37;98953.25;;;22.55
15144;BMP180;7672;50.834;6.286;2022-12-31T09:58:21;98965.88;;;22.29
15144;BMP180;7672;50.834;6.286;2022-12-31T10:07:03;98953.19;;;21.93
15144;BMP180;7672;50.834;6.286;2022-12-31T10:16:05;98976.41;;;21.76
15144;BMP180;7672;50.834;6.286;2022-12-31T10:22:41;98994.34;;;21.78
15144;BMP180;7672;50.834;6.286;2022-12-31T10:31:19;98976.63;;;22.04
15144;BMP180;7672;50.834;6.286;2022-12-31T10:34:15;98983.53;;;22.04
15144;BMP180;7672;50.834;6.286;2022-12-31T10:37:03;98982.69;;;22.03
15144;BMP180;7672;50.834;6.286;2022-12-31T10:40:03;98992.97;;;22.03
15144;BMP180;7672;50.834;6.286;2022-12-31T10:55:54;98990.41;;;22.03
15144;BMP180;7672;50.834;6.286;2022-12-31T11:04:23;98972.34;;;22.05
15144;BMP180;7672;50.834;6.286;2022-12-31T11:21:30;98970.41;;;22.24
15144;BMP180;7672;50.834;6.286;2022-12-31T11:27:21;98949.94;;;22.38
15144;BMP180;7672;50.834;6.286;2022-12-31T11:30:12;98937.06;;;22.38
15144;BMP180;7672;50.834;6.286;2022-12-31T11:42:38;98952.66;;;22.19
15144;BMP180;7672;50.834;6.286;2022-12-31T11:54:40;98984.53;;;22.01
15144;BMP180;7672;50.834;6.286;2022-12-31T11:57:51;98978.53;;;22.01
15144;BMP180;7672;50.834;6.286;2022-12-31T12:00:24;98954.97;;;22.08
15144;BMP180;7672;50.834;6.286;2022-12-31T12:03:04;98968.19;;;22.18
15144;BMP180;7672;50.834;6.286;2022-12-31T12:05:33;98963.97;;;22.32
15144;BMP180;7672;50.834;6.286;2022-12-31T12:08:01;98969.47;;;22.41
15144;BMP180;7672;50.834;6.286;2022-12-31T12:10:35;98977.50;;;22.51
15144;BMP180;7672;50.834;6.286;2022-12-31T12:13:20;98975.34;;;22.59
15144;BMP180;7672;50.834;6.286;2022-12-31T12:15:55;98944.19;;;22.63
15144;BMP180;7672;50.834;6.286;2022-12-31T12:18:50;98975.91;;;22.64
15144;BMP180;7672;50.834;6.286;2022-12-31T12:21:23;98964.03;;;22.61
15144;BMP180;7672;50.834;6.286;2022-12-31T12:24:01;98985.81;;;22.56
15144;BMP180;7672;50.834;6.286;2022-12-31T12:26:33;98987.00;;;22.50
15144;BMP180;7672;50.834;6.286;2022-12-31T12:31:54;98967.31;;;22.34
15144;BMP180;7672;50.834;6.286;2022-12-31T12:34:27;98971.16;;;22.26
15144;BMP180;7672;50.834;6.286;2022-12-31T12:36:54;98989.59;;;22.18
15144;BMP180;7672;50.834;6.286;2022-12-31T12:39:28;98977.97;;;22.11
15144;BMP180;7672;50.834;6.286;2022-12-31T12:42:04;99010.00;;;22.06
15144;BMP180;7672;50.834;6.286;2022-12-31T12:44:31;99009.34;;;22.02
15144;BMP180;7672;50.834;6.286;2022-12-31T12:47:00;99024.03;;;22.00
15144;BMP180;7672;50.834;6.286;2022-12-31T12:49:38;99032.06;;;21.94
15144;BMP180;7672;50.834;6.286;2022-12-31T13:01:52;99055.59;;;21.36
15144;BMP180;7672;50.834;6.286;2022-12-31T13:05:12;99072.97;;;21.14
15144;BMP180;7672;50.834;6.286;2022-12-31T13:07:58;99073.16;;;20.93
15144;BMP180;7672;50.834;6.286;2022-12-31T13:10:43;99068.81;;;20.77
15144;BMP180;7672;50.834;6.286;2022-12-31T13:13:33;99067.06;;;20.59
15144;BMP180;7672;50.834;6.286;2022-12-31T13:22:46;99082.66;;;20.18
15144;BMP180;7672;50.834;6.286;2022-12-31T13:28:23;99079.34;;;19.96
15144;BMP180;7672;50.834;6.286;2022-12-31T13:31:05;99083.13;;;19.87
15144;BMP180;7672;50.834;6.286;2022-12-31T13:33:41;99069.69;;;19.81
15144;BMP180;7672;50.834;6.286;2022-12-31T13:36:16;99077.59;;;19.77
15144;BMP180;7672;50.834;6.286;2022-12-31T13:38:52;99071.13;;;19.68
15144;BMP180;7672;50.834;6.286;2022-12-31T13:41:31;99074.84;;;19.61
15144;BMP180;7672;50.834;6.286;2022-12-31T13:44:37;99064.19;;;19.50
15144;BMP180;7672;50.834;6.286;2022-12-31T13:50:43;99037.97;;;19.24
15144;BMP180;7672;50.834;6.286;2022-12-31T13:53:27;99027.94;;;19.20
15144;BMP180;7672;50.834;6.286;2022-12-31T13:56:04;99009.28;;;19.16
15144;BMP180;7672;50.834;6.286;2022-12-31T13:58:44;99033.28;;;19.14
15144;BMP180;7672;50.834;6.286;2022-12-31T14:01:57;99025.84;;;19.08
15144;BMP180;7672;50.834;6.286;2022-12-31T14:04:33;99032.72;;;19.07
15144;BMP180;7672;50.834;6.286;2022-12-31T14:07:12;99031.88;;;19.07
15144;BMP180;7672;50.834;6.286;2022-12-31T14:09:40;99029.31;;;19.07
15144;BMP180;7672;50.834;6.286;2022-12-31T14:13:10;99021.66;;;19.05
15144;BMP180;7672;50.834;6.286;2022-12-31T14:15:45;99021.84;;;19.01
15144;BMP180;7672;50.834;6.286;2022-12-31T14:18:54;99018.41;;;19.02
15144;BMP180;7672;50.834;6.286;2022-12-31T14:21:49;99011.66;;;18.99
15144;BMP180;7672;50.834;6.286;2022-12-31T14:24:52;99036.38;;;19.00
15144;BMP180;7672;50.834;6.286;2022-12-31T14:27:28;99012.50;;;19.00
15144;BMP180;7672;50.834;6.286;2022-12-31T14:30:14;99030.34;;;19.01
15144;BMP180;7672;50.834;6.286;2022-12-31T14:33:24;99026.09;;;19.02
15144;BMP180;7672;50.834;6.286;2022-12-31T14:36:11;99038.03;;;19.01
15144;BMP180;7672;50.834;6.286;2022-12-31T14:45:25;99026.75;;;19.05
15144;BMP180;7672;50.834;6.286;2022-12-31T14:48:39;99036.19;;;19.05
15144;BMP180;7672;50.834;6.286;2022-12-31T14:51:09;99043.94;;;19.03
15144;BMP180;7672;50.834;6.286;2022-12-31T14:53:36;99033.63;;;19.05
15144;BMP180;7672;50.834;6.286;2022-12-31T14:56:39;99036.09;;;19.08
15144;BMP180;7672;50.834;6.286;2022-12-31T14:59:54;99040.44;;;19.06
15144;BMP180;7672;50.834;6.286;2022-12-31T15:02:33;99054.09;;;19.06
15144;BMP180;7672;50.834;6.286;2022-12-31T15:08:00;99066.03;;;19.06
15144;BMP180;7672;50.834;6.286;2022-12-31T15:10:59;99063.47;;;19.06
15144;BMP180;7672;50.834;6.286;2022-12-31T15:13:52;99070.31;;;19.05
15144;BMP180;7672;50.834;6.286;2022-12-31T15:16:42;99062.75;;;19.02
15144;BMP180;7672;50.834;6.286;2022-12-31T15:20:04;99067.16;;;18.99
15144;BMP180;7672;50.834;6.286;2022-12-31T15:22:46;99057.13;;;18.94
15144;BMP180;7672;50.834;6.286;2022-12-31T15:25:37;99074.19;;;18.94
15144;BMP180;7672;50.834;6.286;2022-12-31T15:28:29;99075.09;;;18.93
15144;BMP180;7672;50.834;6.286;2022-12-31T15:31:17;99063.25;;;18.90
15144;BMP180;7672;50.834;6.286;2022-12-31T15:34:00;99058.16;;;18.89
15144;BMP180;7672;50.834;6.286;2022-12-31T15:36:32;99059.97;;;18.87
15144;BMP180;7672;50.834;6.286;2022-12-31T15:41:43;99064.38;;;18.83
15144;BMP180;7672;50.834;6.286;2022-12-31T15:45:05;99056.09;;;18.77
15144;BMP180;7672;50.834;6.286;2022-12-31T15:47:40;99066.41;;;18.75
15144;BMP180;7672;50.834;6.286;2022-12-31T15:50:18;99072.41;;;18.74
15144;BMP180;7672;50.834;6.286;2022-12-31T15:52:55;99077.53;;;18.74
15144;BMP180;7672;50.834;6.286;2022-12-31T15:55:45;99071.75;;;18.69
15144;BMP180;7672;50.834;6.286;2022-12-31T15:58:20;99077.75;;;18.68
15144;BMP180;7672;50.834;6.286;2022-12-31T16:03:54;99083.72;;;18.90
15144;BMP180;7672;50.834;6.286;2022-12-31T16:06:24;99084.72;;;18.86
15144;BMP180;7672;50.834;6.286;2022-12-31T16:08:51;99078.19;;;18.79
15144;BMP180;7672;50.834;6.286;2022-12-31T16:11:18;99069.03;;;18.74
15144;BMP180;7672;50.834;6.286;2022-12-31T16:13:50;99062.34;;;18.70
15144;BMP180;7672;50.834;6.286;2022-12-31T16:18:51;99077.94;;;18.64
15144;BMP180;7672;50.834;6.286;2022-12-31T16:21:37;99077.09;;;18.63
15144;BMP180;7672;50.834;6.286;2022-12-31T16:24:26;99087.50;;;18.59
15144;BMP180;7672;50.834;6.286;2022-12-31T16:27:01;99078.16;;;18.58
15144;BMP180;7672;50.834;6.286;2022-12-31T16:29:33;99078.16;;;18.58
15144;BMP180;7672;50.834;6.286;2022-12-31T16:32:01;99077.41;;;18.56
15144;BMP180;7672;50.834;6.286;2022-12-31T16:34:36;99079.97;;;18.56
15144;BMP180;7672;50.834;6.286;2022-12-31T16:37:13;99077.41;;;18.56
15144;BMP180;7672;50.834;6.286;2022-12-31T16:40:16;99095.41;;;18.53
15144;BMP180;7672;50.834;6.286;2022-12-31T16:42:45;99090.34;;;18.52
15144;BMP180;7672;50.834;6.286;2022-12-31T16:45:34;99079.31;;;18.50
15144;BMP180;7672;50.834;6.286;2022-12-31T16:48:14;99082.78;;;18.49
15144;BMP180;7672;50.834;6.286;2022-12-31T16:50:49;99088.75;;;18.49
15144;BMP180;7672;50.834;6.286;2022-12-31T16:53:22;99084.50;;;18.48
15144;BMP180;7672;50.834;6.286;2022-12-31T16:56:03;99074.31;;;18.47
15144;BMP180;7672;50.834;6.286;2022-12-31T16:58:39;99068.38;;;18.46
15144;BMP180;7672;50.834;6.286;2022-12-31T17:01:24;99062.41;;;18.46
15144;BMP180;7672;50.834;6.286;2022-12-31T17:03:59;99049.69;;;18.44
15144;BMP180;7672;50.834;6.286;2022-12-31T17:06:27;99061.59;;;18.45
15144;BMP180;7672;50.834;6.286;2022-12-31T17:09:13;99058.16;;;18.46
15144;BMP180;7672;50.834;6.286;2022-12-31T17:11:53;99049.69;;;18.44
15144;BMP180;7672;50.834;6.286;2022-12-31T17:14:26;99033.59;;;18.42
15144;BMP180;7672;50.834;6.286;2022-12-31T17:17:01;99046.31;;;18.44
15144;BMP180;7672;50.834;6.286;2022-12-31T17:19:46;99038.78;;;18.39
15144;BMP180;7672;50.834;6.286;2022-12-31T17:22:26;99041.34;;;18.39
15144;BMP180;7672;50.834;6.286;2022-12-31T17:25:36;99049.91;;;18.38
15144;BMP180;7672;50.834;6.286;2022-12-31T17:28:20;99041.34;;;18.39
15144;BMP180;7672;50.834;6.286;2022-12-31T17:30:48;99025.06;;;18.42
15144;BMP180;7672;50.834;6.286;2022-12-31T17:36:14;99016.50;;;18.43
15144;BMP180;7672;50.834;6.286;2022-12-31T17:38:45;99008.88;;;18.41
15144;BMP180;7672;50.834;6.286;2022-12-31T17:41:20;98995.13;;;18.44
15144;BMP180;7672;50.834;6.286;2022-12-31T17:43:54;98995.06;;;18.45
15144;BMP180;7672;50.834;6.286;2022-12-31T17:46:23;99015.53;;;18.45
15144;BMP180;7672;50.834;6.286;2022-12-31T17:48:56;99004.34;;;18.48
15144;BMP180;7672;50.834;6.286;2022-12-31T17:51:23;99006.03;;;18.49
15144;BMP180;7672;50.834;6.286;2022-12-31T17:53:50;99005.97;;;18.50
15144;BMP180;7672;50.834;6.286;2022-12-31T17:56:18;98988.94;;;18.49
15144;BMP180;7672;50.834;6.286;2022-12-31T17:58:51;98998.28;;;18.50
15144;BMP180;7672;50.834;6.286;2022-12-31T18:01:21;99029.75;;;18.52
15144;BMP180;7672;50.834;6.286;2022-12-31T18:03:50;98999.03;;;18.52
15144;BMP180;7672;50.834;6.286;2022-12-31T18:06:17;98994.72;;;18.54
15144;BMP180;7672;50.834;6.286;2022-12-31T18:08:45;99012.56;;;18.56
15144;BMP180;7672;50.834;6.286;2022-12-31T18:11:22;99001.38;;;18.58
15144;BMP180;7672;50.834;6.286;2022-12-31T18:13:49;99007.38;;;18.57
15144;BMP180;7672;50.834;6.286;2022-12-31T18:16:16;99006.50;;;18.58
15144;BMP180;7672;50.834;6.286;2022-12-31T18:18:43;98996.25;;;18.58
15144;BMP180;7672;50.834;6.286;2022-12-31T18:21:26;98997.09;;;18.58
15144;BMP180;7672;50.834;6.286;2022-12-31T18:23:53;98985.06;;;18.60
15144;BMP180;7672;50.834;6.286;2022-12-31T18:26:23;98974.78;;;18.62
15144;BMP180;7672;50.834;6.286;2022-12-31T18:28:51;98983.25;;;18.64
15144;BMP180;7672;50.834;6.286;2022-12-31T18:31:24;98972.88;;;18.67
15144;BMP180;7672;50.834;6.286;2022-12-31T18:33:54;98978.78;;;18.69
15144;BMP180;7672;50.834;6.286;2022-12-31T18:36:23;98973.47;;;18.73
15144;BMP180;7672;50.834;6.286;2022-12-31T18:38:50;98962.31;;;18.74
15144;BMP180;7672;50.834;6.286;2022-12-31T18:41:20;98985.22;;;18.77
15144;BMP180;7672;50.834;6.286;2022-12-31T18:43:47;98976.66;;;18.78
15144;BMP180;7672;50.834;6.286;2022-12-31T18:46:18;98973.16;;;18.81
15144;BMP180;7672;50.834;6.286;2022-12-31T18:48:45;98960.34;;;18.81
15144;BMP180;7672;50.834;6.286;2022-12-31T18:51:21;98960.25;;;18.84
15144;BMP180;7672;50.834;6.286;2022-12-31T18:54:01;98968.69;;;18.86
15144;BMP180;7672;50.834;6.286;2022-12-31T18:56:28;98966.91;;;18.88
15144;BMP180;7672;50.834;6.286;2022-12-31T18:58:55;98969.34;;;18.91